createdAt,value
2019-01-23T00:00:06.888Z,0
2019-01-23T00:01:07.118Z,0
2019-01-23T00:02:07.095Z,0
2019-01-23T00:03:06.820Z,0
2019-01-23T00:04:07.049Z,0
2019-01-23T00:05:06.778Z,0
2019-01-23T00:06:07.013Z,0
2019-01-23T00:07:06.982Z,0
2019-01-23T00:08:06.947Z,0
2019-01-23T00:09:06.920Z,0
2019-01-23T00:10:06.668Z,0
2019-01-23T00:11:06.886Z,0
2019-01-23T00:12:06.857Z,0
2019-01-23T00:13:08.067Z,0
2019-01-23T00:14:06.566Z,0
2019-01-23T00:15:06.785Z,0
2019-01-23T00:16:06.766Z,0
2019-01-23T00:17:06.500Z,0
2019-01-23T00:18:06.721Z,0
2019-01-23T00:19:06.694Z,0
2019-01-23T00:20:06.431Z,0
2019-01-23T00:21:06.653Z,0
2019-01-23T00:22:06.379Z,0
2019-01-23T00:23:06.612Z,0
2019-01-23T00:24:06.579Z,0
2019-01-23T00:25:06.319Z,0
2019-01-23T00:26:06.533Z,0
2019-01-23T00:27:06.507Z,0
2019-01-23T00:28:06.493Z,0
2019-01-23T00:29:06.222Z,0
2019-01-23T00:30:06.437Z,0
2019-01-23T00:31:06.418Z,0
2019-01-23T00:32:06.397Z,0
2019-01-23T00:33:06.123Z,0
2019-01-23T00:34:06.343Z,0
2019-01-23T00:35:06.330Z,0
2019-01-23T00:36:06.048Z,0
2019-01-23T00:37:06.281Z,0
2019-01-23T00:38:06.021Z,0
2019-01-23T00:39:06.233Z,0
2019-01-23T00:40:06.208Z,0
2019-01-23T00:41:05.949Z,0
2019-01-23T00:42:05.965Z,0
2019-01-23T00:43:06.190Z,0
2019-01-23T00:44:05.680Z,0
2019-01-23T00:45:06.150Z,0
2019-01-23T00:46:06.138Z,0
2019-01-23T00:47:18.839Z,0
2019-01-23T00:48:06.082Z,0
2019-01-23T00:49:06.050Z,0
2019-01-23T00:50:06.035Z,0
2019-01-23T00:51:05.757Z,0
2019-01-23T00:52:05.981Z,0
2019-01-23T00:53:05.962Z,0
2019-01-23T00:54:05.943Z,0
2019-01-23T00:55:05.921Z,0
2019-01-23T00:56:05.902Z,0
2019-01-23T00:57:05.868Z,0
2019-01-23T00:58:05.844Z,0
2019-01-23T00:59:05.575Z,0
2019-01-23T01:00:06.047Z,0
2019-01-23T01:01:05.776Z,0
2019-01-23T01:02:05.505Z,0
2019-01-23T01:03:05.727Z,0
2019-01-23T01:04:05.707Z,0
2019-01-23T01:05:05.683Z,0
2019-01-23T01:06:05.410Z,0
2019-01-23T01:07:05.640Z,0
2019-01-23T01:08:05.365Z,0
2019-01-23T01:09:05.586Z,0
2019-01-23T01:10:05.570Z,0
2019-01-23T01:11:05.303Z,0
2019-01-23T01:12:05.517Z,0
2019-01-23T01:13:05.498Z,0
2019-01-23T01:14:05.471Z,0
2019-01-23T01:15:05.448Z,0
2019-01-23T01:16:05.428Z,0
2019-01-23T01:17:05.400Z,0
2019-01-23T01:18:05.128Z,0
2019-01-23T01:19:05.353Z,0
2019-01-23T01:20:05.082Z,0
2019-01-23T01:21:05.305Z,0
2019-01-23T01:22:05.279Z,0
2019-01-23T01:23:05.264Z,0
2019-01-23T01:24:05.231Z,0
2019-01-23T01:25:05.209Z,0
2019-01-23T01:26:05.193Z,0
2019-01-23T01:27:04.919Z,0
2019-01-23T01:28:04.888Z,0
2019-01-23T01:29:05.122Z,0
2019-01-23T01:30:05.093Z,0
2019-01-23T01:31:05.071Z,0
2019-01-23T01:32:05.044Z,0
2019-01-23T01:33:04.773Z,0
2019-01-23T01:34:04.998Z,0
2019-01-23T01:35:05.026Z,0
2019-01-23T01:36:04.706Z,0
2019-01-23T01:37:04.927Z,0
2019-01-23T01:38:04.905Z,0
2019-01-23T01:39:04.879Z,0
2019-01-23T01:40:04.758Z,0
2019-01-23T01:41:04.582Z,0
2019-01-23T01:42:04.812Z,0
2019-01-23T01:43:04.535Z,0
2019-01-23T01:44:04.767Z,0
2019-01-23T01:45:04.739Z,0
2019-01-23T01:46:04.720Z,0
2019-01-23T01:47:04.690Z,0
2019-01-23T01:48:04.662Z,0
2019-01-23T01:49:04.641Z,0
2019-01-23T01:50:04.620Z,0
2019-01-23T01:51:04.595Z,0
2019-01-23T01:52:04.320Z,0
2019-01-23T01:53:04.544Z,0
2019-01-23T01:54:04.269Z,0
2019-01-23T01:55:04.497Z,0
2019-01-23T01:56:04.468Z,0
2019-01-23T01:57:04.455Z,0
2019-01-23T01:58:04.427Z,0
2019-01-23T01:59:10.077Z,0
2019-01-23T02:00:04.375Z,0
2019-01-23T02:01:04.354Z,0
2019-01-23T02:02:04.325Z,0
2019-01-23T02:03:04.304Z,0
2019-01-23T02:04:03.794Z,0
2019-01-23T02:05:03.758Z,0
2019-01-23T02:06:04.237Z,0
2019-01-23T02:07:04.206Z,0
2019-01-23T02:08:04.180Z,0
2019-01-23T02:09:04.159Z,0
2019-01-23T02:10:04.141Z,0
2019-01-23T02:11:03.862Z,0
2019-01-23T02:12:04.082Z,0
2019-01-23T02:13:03.838Z,0
2019-01-23T02:14:04.046Z,0
2019-01-23T02:15:04.013Z,0
2019-01-23T02:16:03.836Z,0
2019-01-23T02:17:03.975Z,0
2019-01-23T02:18:03.937Z,0
2019-01-23T02:19:03.918Z,0
2019-01-23T02:20:03.658Z,0
2019-01-23T02:21:03.874Z,0
2019-01-23T02:22:03.841Z,0
2019-01-23T02:23:03.572Z,0
2019-01-23T02:24:03.788Z,0
2019-01-23T02:25:03.780Z,0
2019-01-23T02:26:03.740Z,0
2019-01-23T02:27:03.225Z,0
2019-01-23T02:28:03.696Z,0
2019-01-23T02:29:09.313Z,0
2019-01-23T02:30:03.653Z,0
2019-01-23T02:31:03.620Z,0
2019-01-23T02:32:03.358Z,0
2019-01-23T02:33:03.570Z,0
2019-01-23T02:34:03.552Z,0
2019-01-23T02:35:03.523Z,0
2019-01-23T02:36:03.507Z,0
2019-01-23T02:37:03.473Z,0
2019-01-23T02:38:03.447Z,0
2019-01-23T02:39:03.195Z,0
2019-01-23T02:40:03.157Z,0
2019-01-23T02:41:03.387Z,0
2019-01-23T02:42:03.355Z,0
2019-01-23T02:43:03.089Z,0
2019-01-23T02:44:03.304Z,0
2019-01-23T02:45:03.279Z,0
2019-01-23T02:46:03.260Z,0
2019-01-23T02:47:03.235Z,0
2019-01-23T02:48:02.720Z,0
2019-01-23T02:49:03.190Z,0
2019-01-23T02:50:02.946Z,0
2019-01-23T02:51:03.138Z,0
2019-01-23T02:52:03.115Z,0
2019-01-23T02:53:02.834Z,0
2019-01-23T02:54:03.063Z,0
2019-01-23T02:55:02.794Z,0
2019-01-23T02:56:02.762Z,0
2019-01-23T02:57:02.983Z,0
2019-01-23T02:58:03.003Z,0
2019-01-23T02:59:02.933Z,0
2019-01-23T03:00:02.920Z,0
2019-01-23T03:01:02.885Z,0
2019-01-23T03:02:02.612Z,0
2019-01-23T03:03:02.836Z,0
2019-01-23T03:04:02.812Z,0
2019-01-23T03:05:02.825Z,0
2019-01-23T03:06:02.785Z,0
2019-01-23T03:07:02.489Z,0
2019-01-23T03:08:02.730Z,0
2019-01-23T03:09:02.683Z,0
2019-01-23T03:10:02.664Z,0
2019-01-23T03:11:02.637Z,0
2019-01-23T03:12:02.393Z,0
2019-01-23T03:13:02.587Z,0
2019-01-23T03:14:02.575Z,0
2019-01-23T03:15:02.558Z,0
2019-01-23T03:16:02.514Z,0
2019-01-23T03:17:02.240Z,0
2019-01-23T03:18:02.461Z,0
2019-01-23T03:19:02.193Z,0
2019-01-23T03:20:02.418Z,0
2019-01-23T03:21:02.399Z,0
2019-01-23T03:22:02.116Z,0
2019-01-23T03:23:02.341Z,0
2019-01-23T03:24:02.317Z,0
2019-01-23T03:25:02.283Z,0
2019-01-23T03:26:02.270Z,0
2019-01-23T03:27:02.244Z,0
2019-01-23T03:28:02.212Z,0
2019-01-23T03:29:01.936Z,0
2019-01-23T03:30:01.916Z,0
2019-01-23T03:31:02.150Z,0
2019-01-23T03:32:02.135Z,0
2019-01-23T03:33:02.110Z,0
2019-01-23T03:34:01.813Z,0
2019-01-23T03:35:02.040Z,0
2019-01-23T03:36:02.023Z,0
2019-01-23T03:37:01.996Z,0
2019-01-23T03:38:01.970Z,0
2019-01-23T03:39:01.697Z,0
2019-01-23T03:40:01.912Z,0
2019-01-23T03:41:01.893Z,0
2019-01-23T03:42:01.870Z,0
2019-01-23T03:43:01.878Z,0
2019-01-23T03:44:01.811Z,0
2019-01-23T03:45:01.546Z,0
2019-01-23T03:46:01.777Z,0
2019-01-23T03:47:01.739Z,0
2019-01-23T03:48:01.466Z,0
2019-01-23T03:49:01.687Z,0
2019-01-23T03:50:01.664Z,0
2019-01-23T03:51:01.389Z,0
2019-01-23T03:52:01.371Z,0
2019-01-23T03:53:01.347Z,0
2019-01-23T03:54:01.577Z,0
2019-01-23T03:55:01.547Z,0
2019-01-23T03:56:01.528Z,0
2019-01-23T03:57:01.563Z,0
2019-01-23T03:58:01.469Z,0
2019-01-23T03:59:01.445Z,0
2019-01-23T04:00:01.423Z,0
2019-01-23T04:01:01.395Z,0
2019-01-23T04:02:01.365Z,0
2019-01-23T04:03:01.338Z,0
2019-01-23T04:04:01.110Z,0
2019-01-23T04:05:01.300Z,0
2019-01-23T04:06:01.267Z,0
2019-01-23T04:07:01.252Z,0
2019-01-23T04:08:00.969Z,0
2019-01-23T04:09:00.950Z,0
2019-01-23T04:10:01.167Z,0
2019-01-23T04:11:01.151Z,0
2019-01-23T04:12:01.156Z,0
2019-01-23T04:13:01.100Z,0
2019-01-23T04:14:01.093Z,0
2019-01-23T04:15:00.801Z,0
2019-01-23T04:16:01.040Z,0
2019-01-23T04:17:01.006Z,0
2019-01-23T04:18:00.978Z,0
2019-01-23T04:19:00.984Z,0
2019-01-23T04:20:00.685Z,0
2019-01-23T04:21:00.910Z,0
2019-01-23T04:22:00.883Z,0
2019-01-23T04:23:00.848Z,0
2019-01-23T04:24:00.584Z,0
2019-01-23T04:25:00.548Z,0
2019-01-23T04:26:00.526Z,0
2019-01-23T04:27:00.744Z,0
2019-01-23T04:28:00.734Z,0
2019-01-23T04:29:00.703Z,0
2019-01-23T04:30:00.677Z,0
2019-01-23T04:31:00.648Z,0
2019-01-23T04:32:00.632Z,0
2019-01-23T04:33:00.596Z,0
2019-01-23T04:34:00.584Z,0
2019-01-23T04:35:00.547Z,0
2019-01-23T04:36:00.528Z,0
2019-01-23T04:37:00.501Z,0
2019-01-23T04:38:00.620Z,0
2019-01-23T04:39:00.443Z,0
2019-01-23T04:40:00.420Z,0
2019-01-23T04:41:00.149Z,0
2019-01-23T04:42:00.373Z,0
2019-01-23T04:43:00.349Z,0
2019-01-23T04:44:00.325Z,0
2019-01-23T04:45:00.296Z,0
2019-01-23T04:46:00.290Z,0
2019-01-23T04:47:00.000Z,0
2019-01-23T04:48:00.225Z,0
2019-01-23T04:49:00.205Z,0
2019-01-23T04:50:00.204Z,0
2019-01-23T04:51:00.172Z,0
2019-01-23T04:51:59.876Z,0
2019-01-23T04:52:59.861Z,0
2019-01-23T04:53:59.845Z,0
2019-01-23T04:55:00.048Z,0
2019-01-23T04:56:00.018Z,0
2019-01-23T04:57:00.020Z,0
2019-01-23T04:57:59.724Z,0
2019-01-23T04:58:59.962Z,0
2019-01-23T04:59:59.675Z,0
2019-01-23T05:00:59.902Z,0
2019-01-23T05:01:59.876Z,0
2019-01-23T05:02:59.854Z,0
2019-01-23T05:03:59.826Z,0
2019-01-23T05:04:59.569Z,0
2019-01-23T05:05:59.525Z,0
2019-01-23T05:06:59.757Z,0
2019-01-23T05:07:59.734Z,0
2019-01-23T05:08:59.598Z,0
2019-01-23T05:09:59.684Z,0
2019-01-23T05:10:59.652Z,0
2019-01-23T05:11:59.632Z,0
2019-01-23T05:12:59.598Z,0
2019-01-23T05:13:59.586Z,0
2019-01-23T05:14:59.068Z,0
2019-01-23T05:15:59.274Z,0
2019-01-23T05:16:59.502Z,0
2019-01-23T05:17:59.224Z,0
2019-01-23T05:18:59.456Z,0
2019-01-23T05:19:59.180Z,0
2019-01-23T05:20:59.408Z,0
2019-01-23T05:21:59.396Z,0
2019-01-23T05:22:59.355Z,0
2019-01-23T05:23:59.322Z,0
2019-01-23T05:24:59.302Z,0
2019-01-23T05:25:59.275Z,0
2019-01-23T05:26:58.998Z,0
2019-01-23T05:27:59.231Z,0
2019-01-23T05:28:59.206Z,0
2019-01-23T05:30:02.307Z,0
2019-01-23T05:30:59.151Z,0
2019-01-23T05:31:59.129Z,0
2019-01-23T05:32:59.103Z,0
2019-01-23T05:33:59.086Z,0
2019-01-23T05:34:59.090Z,0
2019-01-23T05:35:59.025Z,0
2019-01-23T05:36:58.766Z,0
2019-01-23T05:37:58.727Z,0
2019-01-23T05:38:58.954Z,0
2019-01-23T05:39:58.923Z,0
2019-01-23T05:40:58.907Z,0
2019-01-23T05:41:58.637Z,0
2019-01-23T05:42:58.603Z,0
2019-01-23T05:43:58.826Z,0
2019-01-23T05:44:58.809Z,0
2019-01-23T05:45:58.799Z,0
2019-01-23T05:46:58.756Z,0
2019-01-23T05:47:58.725Z,0
2019-01-23T05:48:58.465Z,0
2019-01-23T05:49:58.700Z,0
2019-01-23T05:50:58.676Z,0
2019-01-23T05:51:58.659Z,0
2019-01-23T05:52:58.362Z,0
2019-01-23T05:53:58.585Z,0
2019-01-23T05:54:58.548Z,0
2019-01-23T05:55:58.553Z,0
2019-01-23T05:56:58.537Z,0
2019-01-23T05:57:58.506Z,0
2019-01-23T05:58:58.451Z,0
2019-01-23T06:00:04.769Z,0
2019-01-23T06:00:58.449Z,0
2019-01-23T06:01:58.385Z,0
2019-01-23T06:02:58.358Z,0
2019-01-23T06:03:58.325Z,0
2019-01-23T06:04:58.314Z,0
2019-01-23T06:05:58.284Z,0
2019-01-23T06:06:58.257Z,0
2019-01-23T06:07:58.230Z,0
2019-01-23T06:08:58.200Z,0
2019-01-23T06:09:58.179Z,0
2019-01-23T06:10:58.155Z,0
2019-01-23T06:11:58.127Z,0
2019-01-23T06:12:57.866Z,0
2019-01-23T06:13:58.078Z,0
2019-01-23T06:14:58.058Z,0
2019-01-23T06:15:58.032Z,0
2019-01-23T06:16:58.004Z,0
2019-01-23T06:17:58.043Z,0
2019-01-23T06:18:57.955Z,0
2019-01-23T06:19:57.926Z,0
2019-01-23T06:20:58.073Z,0
2019-01-23T06:21:57.631Z,0
2019-01-23T06:22:57.850Z,0
2019-01-23T06:23:57.586Z,0
2019-01-23T06:24:57.563Z,0
2019-01-23T06:25:57.839Z,4
2019-01-23T06:26:57.502Z,4
2019-01-23T06:27:57.729Z,4
2019-01-23T06:28:57.709Z,0
2019-01-23T06:29:57.457Z,4
2019-01-23T06:30:57.653Z,4
2019-01-23T06:31:57.639Z,4
2019-01-23T06:32:57.643Z,8
2019-01-23T06:33:57.588Z,4
2019-01-23T06:34:57.560Z,4
2019-01-23T06:35:57.529Z,12
2019-01-23T06:36:57.252Z,12
2019-01-23T06:37:57.480Z,12
2019-01-23T06:38:57.449Z,12
2019-01-23T06:39:57.182Z,20
2019-01-23T06:40:57.403Z,20
2019-01-23T06:41:57.377Z,24
2019-01-23T06:42:57.358Z,24
2019-01-23T06:43:57.079Z,32
2019-01-23T06:44:57.302Z,36
2019-01-23T06:45:57.276Z,40
2019-01-23T06:46:57.283Z,44
2019-01-23T06:47:57.236Z,52
2019-01-23T06:48:57.203Z,60
2019-01-23T06:49:57.178Z,64
2019-01-23T06:50:57.151Z,72
2019-01-23T06:51:57.129Z,84
2019-01-23T06:52:57.124Z,92
2019-01-23T06:53:57.098Z,108
2019-01-23T06:54:56.810Z,116
2019-01-23T06:55:56.779Z,128
2019-01-23T06:56:56.756Z,136
2019-01-23T06:57:56.733Z,148
2019-01-23T06:58:56.959Z,164
2019-01-23T06:59:56.925Z,176
2019-01-23T07:00:56.910Z,188
2019-01-23T07:01:56.630Z,204
2019-01-23T07:02:56.860Z,216
2019-01-23T07:03:56.830Z,236
2019-01-23T07:04:56.806Z,256
2019-01-23T07:05:56.532Z,272
2019-01-23T07:06:56.511Z,292
2019-01-23T07:07:56.482Z,316
2019-01-23T07:08:56.708Z,344
2019-01-23T07:09:56.703Z,368
2019-01-23T07:10:56.655Z,392
2019-01-23T07:11:56.636Z,420
2019-01-23T07:12:56.617Z,452
2019-01-23T07:13:56.585Z,480
2019-01-23T07:14:56.306Z,508
2019-01-23T07:15:56.571Z,536
2019-01-23T07:16:56.543Z,564
2019-01-23T07:17:56.504Z,588
2019-01-23T07:18:56.233Z,612
2019-01-23T07:19:56.182Z,636
2019-01-23T07:20:56.162Z,664
2019-01-23T07:21:56.140Z,688
2019-01-23T07:22:56.118Z,712
2019-01-23T07:23:57.427Z,748
2019-01-23T07:24:56.306Z,788
2019-01-23T07:25:56.290Z,832
2019-01-23T07:26:56.258Z,880
2019-01-23T07:27:55.991Z,936
2019-01-23T07:28:56.604Z,996
2019-01-23T07:29:56.287Z,1060
2019-01-23T07:30:56.159Z,1140
2019-01-23T07:31:55.889Z,1196
2019-01-23T07:32:55.873Z,1240
2019-01-23T07:33:56.133Z,1292
2019-01-23T07:34:56.070Z,1352
2019-01-23T07:35:56.048Z,1404
2019-01-23T07:36:55.778Z,1436
2019-01-23T07:37:55.495Z,1460
2019-01-23T07:38:55.964Z,1480
2019-01-23T07:39:55.941Z,1508
2019-01-23T07:40:55.675Z,1544
2019-01-23T07:41:57.033Z,1596
2019-01-23T07:42:55.878Z,1632
2019-01-23T07:43:55.595Z,1640
2019-01-23T07:44:55.820Z,1660
2019-01-23T07:45:55.793Z,1688
2019-01-23T07:46:55.776Z,1704
2019-01-23T07:47:55.495Z,1712
2019-01-23T07:48:55.477Z,1724
2019-01-23T07:49:55.302Z,1740
2019-01-23T07:50:55.676Z,1748
2019-01-23T07:51:55.397Z,1760
2019-01-23T07:52:55.381Z,1764
2019-01-23T07:53:56.106Z,1784
2019-01-23T07:54:55.573Z,1848
2019-01-23T07:55:55.297Z,1896
2019-01-23T07:56:55.529Z,1928
2019-01-23T07:57:55.522Z,1964
2019-01-23T07:58:55.477Z,1992
2019-01-23T07:59:55.479Z,2028
2019-01-23T08:00:55.436Z,2064
2019-01-23T08:01:55.406Z,2108
2019-01-23T08:02:55.385Z,2168
2019-01-23T08:03:55.366Z,2240
2019-01-23T08:04:55.335Z,2320
2019-01-23T08:05:55.322Z,2388
2019-01-23T08:06:55.035Z,2460
2019-01-23T08:07:55.293Z,2504
2019-01-23T08:08:55.238Z,2536
2019-01-23T08:09:55.215Z,2552
2019-01-23T08:10:54.944Z,2564
2019-01-23T08:11:55.169Z,2572
2019-01-23T08:12:55.144Z,2584
2019-01-23T08:13:55.379Z,2588
2019-01-23T08:14:55.101Z,2604
2019-01-23T08:15:55.071Z,2628
2019-01-23T08:16:55.043Z,2656
2019-01-23T08:17:55.025Z,2696
2019-01-23T08:18:54.755Z,2716
2019-01-23T08:19:54.971Z,2728
2019-01-23T08:20:54.713Z,2740
2019-01-23T08:21:54.687Z,2740
2019-01-23T08:22:54.901Z,2724
2019-01-23T08:23:54.885Z,2704
2019-01-23T08:24:54.860Z,2688
2019-01-23T08:25:54.833Z,2648
2019-01-23T08:26:54.807Z,2608
2019-01-23T08:27:54.788Z,2564
2019-01-23T08:28:54.777Z,2524
2019-01-23T08:29:54.742Z,2484
2019-01-23T08:30:54.727Z,2452
2019-01-23T08:31:54.491Z,2432
2019-01-23T08:32:54.668Z,2424
2019-01-23T08:33:54.650Z,2432
2019-01-23T08:34:54.625Z,2448
2019-01-23T08:35:54.350Z,2464
2019-01-23T08:36:54.579Z,2472
2019-01-23T08:37:54.581Z,2484
2019-01-23T08:38:54.529Z,2496
2019-01-23T08:39:54.510Z,2504
2019-01-23T08:40:54.482Z,2516
2019-01-23T08:41:54.508Z,2532
2019-01-23T08:42:54.452Z,2552
2019-01-23T08:43:54.162Z,2552
2019-01-23T08:44:54.393Z,2572
2019-01-23T08:45:54.371Z,2608
2019-01-23T08:46:54.345Z,2628
2019-01-23T08:47:53.827Z,2636
2019-01-23T08:48:54.063Z,2644
2019-01-23T08:49:54.030Z,2648
2019-01-23T08:50:54.270Z,2652
2019-01-23T08:51:54.238Z,2664
2019-01-23T08:52:54.211Z,2664
2019-01-23T08:53:53.941Z,2664
2019-01-23T08:54:53.907Z,2672
2019-01-23T08:56:00.599Z,2680
2019-01-23T08:56:54.112Z,2688
2019-01-23T08:57:53.601Z,2680
2019-01-23T08:58:53.834Z,2672
2019-01-23T08:59:54.046Z,2660
2019-01-23T09:00:54.030Z,2656
2019-01-23T09:01:53.997Z,2660
2019-01-23T09:02:53.980Z,2648
2019-01-23T09:03:53.704Z,2660
2019-01-23T09:04:53.930Z,2664
2019-01-23T09:05:53.664Z,2680
2019-01-23T09:06:53.647Z,2684
2019-01-23T09:07:53.624Z,2704
2019-01-23T09:08:53.587Z,2720
2019-01-23T09:09:53.817Z,2740
2019-01-23T09:10:53.795Z,2756
2019-01-23T09:11:53.771Z,2788
2019-01-23T09:12:53.750Z,2808
2019-01-23T09:13:53.479Z,2824
2019-01-23T09:14:53.704Z,2836
2019-01-23T09:15:53.684Z,2832
2019-01-23T09:16:53.672Z,2800
2019-01-23T09:17:53.638Z,2768
2019-01-23T09:18:53.120Z,2744
2019-01-23T09:19:53.609Z,2804
2019-01-23T09:20:53.575Z,2832
2019-01-23T09:21:53.549Z,2832
2019-01-23T09:22:53.538Z,2836
2019-01-23T09:23:53.503Z,2852
2019-01-23T09:24:53.228Z,2884
2019-01-23T09:25:57.768Z,2904
2019-01-23T09:26:53.431Z,2936
2019-01-23T09:27:53.411Z,2968
2019-01-23T09:28:53.386Z,3004
2019-01-23T09:29:53.362Z,3036
2019-01-23T09:30:59.478Z,3076
2019-01-23T09:31:53.316Z,3104
2019-01-23T09:32:53.298Z,3112
2019-01-23T09:33:53.279Z,3144
2019-01-23T09:34:53.251Z,3168
2019-01-23T09:35:52.977Z,3172
2019-01-23T09:36:53.207Z,3160
2019-01-23T09:37:53.183Z,3140
2019-01-23T09:38:52.909Z,3116
2019-01-23T09:39:53.140Z,3112
2019-01-23T09:40:52.869Z,3104
2019-01-23T09:41:53.092Z,3104
2019-01-23T09:42:52.831Z,3128
2019-01-23T09:43:53.048Z,3160
2019-01-23T09:44:53.030Z,3196
2019-01-23T09:45:53.005Z,3252
2019-01-23T09:46:53.084Z,3324
2019-01-23T09:47:52.716Z,3376
2019-01-23T09:48:53.930Z,3408
2019-01-23T09:49:52.919Z,3440
2019-01-23T09:50:52.656Z,3472
2019-01-23T09:51:53.021Z,3508
2019-01-23T09:52:52.853Z,3556
2019-01-23T09:53:52.823Z,3572
2019-01-23T09:54:52.805Z,3628
2019-01-23T09:55:52.827Z,3668
2019-01-23T09:56:52.514Z,3688
2019-01-23T09:57:52.736Z,3732
2019-01-23T09:58:52.719Z,3780
2019-01-23T09:59:52.694Z,3816
2019-01-23T10:00:52.670Z,3848
2019-01-23T10:01:52.653Z,3900
2019-01-23T10:02:52.625Z,3944
2019-01-23T10:03:52.605Z,3992
2019-01-23T10:04:52.581Z,4068
2019-01-23T10:05:52.560Z,4152
2019-01-23T10:06:52.538Z,4240
2019-01-23T10:07:52.521Z,4360
2019-01-23T10:08:51.996Z,4468
2019-01-23T10:09:52.477Z,4572
2019-01-23T10:10:52.199Z,4676
2019-01-23T10:11:52.427Z,4800
2019-01-23T10:12:52.404Z,4896
2019-01-23T10:13:52.135Z,4996
2019-01-23T10:14:52.372Z,5108
2019-01-23T10:15:52.345Z,5228
2019-01-23T10:16:52.075Z,5336
2019-01-23T10:17:52.340Z,5448
2019-01-23T10:18:58.409Z,5520
2019-01-23T10:19:52.698Z,5576
2019-01-23T10:20:51.978Z,5592
2019-01-23T10:21:52.207Z,5568
2019-01-23T10:22:52.537Z,5572
2019-01-23T10:23:52.168Z,5612
2019-01-23T10:24:52.138Z,5696
2019-01-23T10:25:52.120Z,5788
2019-01-23T10:26:52.110Z,5868
2019-01-23T10:27:52.098Z,5924
2019-01-23T10:28:52.069Z,5984
2019-01-23T10:29:52.033Z,6060
2019-01-23T10:30:51.763Z,6140
2019-01-23T10:31:52.002Z,6164
2019-01-23T10:32:51.980Z,6212
2019-01-23T10:33:51.947Z,6264
2019-01-23T10:34:51.931Z,6220
2019-01-23T10:35:51.903Z,6196
2019-01-23T10:36:51.633Z,6144
2019-01-23T10:37:51.614Z,6060
2019-01-23T10:38:51.885Z,5988
2019-01-23T10:39:52.343Z,6028
2019-01-23T10:40:51.303Z,6040
2019-01-23T10:41:51.782Z,6020
2019-01-23T10:42:51.762Z,5952
2019-01-23T10:43:51.483Z,5876
2019-01-23T10:44:51.470Z,5716
2019-01-23T10:45:51.695Z,5676
2019-01-23T10:46:51.413Z,5648
2019-01-23T10:47:58.359Z,5780
2019-01-23T10:48:51.631Z,5884
2019-01-23T10:49:51.602Z,5976
2019-01-23T10:50:51.596Z,6064
2019-01-23T10:51:51.315Z,6196
2019-01-23T10:52:51.690Z,6308
2019-01-23T10:53:51.526Z,6336
2019-01-23T10:54:51.503Z,6420
2019-01-23T10:55:51.483Z,6452
2019-01-23T10:56:51.464Z,6436
2019-01-23T10:57:51.456Z,6456
2019-01-23T10:58:51.416Z,6520
2019-01-23T10:59:51.394Z,6568
2019-01-23T11:00:51.373Z,6548
2019-01-23T11:01:51.347Z,6516
2019-01-23T11:02:51.340Z,6396
2019-01-23T11:03:51.309Z,6400
2019-01-23T11:04:51.297Z,6344
2019-01-23T11:05:51.269Z,6304
2019-01-23T11:06:51.010Z,6324
2019-01-23T11:07:51.229Z,6328
2019-01-23T11:08:51.206Z,6336
2019-01-23T11:09:51.182Z,6308
2019-01-23T11:10:51.164Z,6228
2019-01-23T11:11:51.142Z,6160
2019-01-23T11:12:51.120Z,6076
2019-01-23T11:13:51.110Z,5924
2019-01-23T11:14:51.079Z,5816
2019-01-23T11:15:51.055Z,5740
2019-01-23T11:16:51.059Z,5660
2019-01-23T11:17:51.040Z,5568
2019-01-23T11:18:50.745Z,5496
2019-01-23T11:19:50.974Z,5440
2019-01-23T11:20:50.949Z,5416
2019-01-23T11:21:50.698Z,5392
2019-01-23T11:22:50.907Z,5400
2019-01-23T11:23:50.892Z,5384
2019-01-23T11:24:50.618Z,5420
2019-01-23T11:25:50.851Z,5440
2019-01-23T11:26:50.830Z,5396
2019-01-23T11:27:50.602Z,5356
2019-01-23T11:28:50.783Z,5340
2019-01-23T11:29:50.763Z,5340
2019-01-23T11:30:50.745Z,5268
2019-01-23T11:31:50.729Z,5224
2019-01-23T11:32:50.706Z,5140
2019-01-23T11:33:50.691Z,5068
2019-01-23T11:34:50.658Z,5028
2019-01-23T11:35:50.637Z,4976
2019-01-23T11:36:50.619Z,4936
2019-01-23T11:37:50.600Z,4928
2019-01-23T11:38:50.576Z,4900
2019-01-23T11:39:50.554Z,4916
2019-01-23T11:40:50.292Z,4912
2019-01-23T11:41:50.267Z,4896
2019-01-23T11:42:50.241Z,4844
2019-01-23T11:43:50.470Z,4796
2019-01-23T11:44:50.453Z,4748
2019-01-23T11:45:50.435Z,4716
2019-01-23T11:46:50.415Z,4696
2019-01-23T11:47:50.142Z,4640
2019-01-23T11:48:50.119Z,4580
2019-01-23T11:49:50.345Z,4564
2019-01-23T11:50:50.333Z,4600
2019-01-23T11:51:50.314Z,4564
2019-01-23T11:52:50.283Z,4636
2019-01-23T11:53:49.769Z,4728
2019-01-23T11:54:50.244Z,4824
2019-01-23T11:55:50.232Z,4944
2019-01-23T11:56:50.206Z,5032
2019-01-23T11:57:50.187Z,5132
2019-01-23T11:58:50.169Z,5212
2019-01-23T11:59:50.148Z,5328
2019-01-23T12:00:49.884Z,5424
2019-01-23T12:01:49.850Z,5480
2019-01-23T12:02:49.831Z,5512
2019-01-23T12:03:49.811Z,5508
2019-01-23T12:04:50.039Z,5500
2019-01-23T12:05:50.023Z,5480
2019-01-23T12:06:50.000Z,5448
2019-01-23T12:07:49.979Z,5420
2019-01-23T12:08:49.957Z,5392
2019-01-23T12:09:49.937Z,5352
2019-01-23T12:10:49.919Z,5300
2019-01-23T12:11:49.932Z,5356
2019-01-23T12:12:49.627Z,5336
2019-01-23T12:13:49.606Z,5260
2019-01-23T12:14:49.834Z,5248
2019-01-23T12:15:49.819Z,5312
2019-01-23T12:16:49.800Z,5352
2019-01-23T12:17:49.777Z,5360
2019-01-23T12:18:49.761Z,5372
2019-01-23T12:19:49.735Z,5412
2019-01-23T12:20:49.472Z,5420
2019-01-23T12:21:49.694Z,5408
2019-01-23T12:22:49.692Z,5376
2019-01-23T12:23:49.455Z,5332
2019-01-23T12:24:49.629Z,5248
2019-01-23T12:25:49.363Z,5160
2019-01-23T12:26:49.589Z,5056
2019-01-23T12:27:49.322Z,4928
2019-01-23T12:28:49.549Z,4828
2019-01-23T12:29:49.529Z,4772
2019-01-23T12:30:49.258Z,4772
2019-01-23T12:31:49.496Z,4704
2019-01-23T12:32:49.470Z,4644
2019-01-23T12:33:49.458Z,4508
2019-01-23T12:34:49.428Z,4444
2019-01-23T12:35:49.406Z,4388
2019-01-23T12:36:49.387Z,4328
2019-01-23T12:37:49.364Z,4264
2019-01-23T12:38:49.340Z,4208
2019-01-23T12:39:49.320Z,4144
2019-01-23T12:40:49.054Z,4036
2019-01-23T12:41:49.297Z,3948
2019-01-23T12:42:49.263Z,3860
2019-01-23T12:43:49.239Z,3728
2019-01-23T12:44:49.220Z,3604
2019-01-23T12:45:49.203Z,3480
2019-01-23T12:46:48.931Z,3420
2019-01-23T12:47:49.163Z,3384
2019-01-23T12:48:49.142Z,3344
2019-01-23T12:49:49.116Z,3312
2019-01-23T12:50:49.103Z,3256
2019-01-23T12:51:48.827Z,3204
2019-01-23T12:52:49.054Z,3164
2019-01-23T12:53:49.035Z,3172
2019-01-23T12:54:49.054Z,3172
2019-01-23T12:55:48.991Z,3140
2019-01-23T12:56:48.977Z,3136
2019-01-23T12:57:48.709Z,3096
2019-01-23T12:58:48.930Z,3084
2019-01-23T12:59:48.682Z,3096
2019-01-23T13:00:48.883Z,3100
2019-01-23T13:01:49.572Z,3124
2019-01-23T13:02:48.602Z,3140
2019-01-23T13:03:48.574Z,3144
2019-01-23T13:04:48.800Z,3152
2019-01-23T13:05:48.529Z,3116
2019-01-23T13:06:50.128Z,3128
2019-01-23T13:07:48.493Z,3144
2019-01-23T13:08:48.470Z,3144
2019-01-23T13:09:48.694Z,3144
2019-01-23T13:10:48.682Z,3136
2019-01-23T13:11:48.408Z,3088
2019-01-23T13:12:48.637Z,3100
2019-01-23T13:13:48.861Z,3100
2019-01-23T13:14:48.587Z,3108
2019-01-23T13:15:48.325Z,3128
2019-01-23T13:16:48.298Z,3140
2019-01-23T13:17:48.532Z,3132
2019-01-23T13:18:48.504Z,3136
2019-01-23T13:19:48.480Z,3108
2019-01-23T13:20:48.477Z,3080
2019-01-23T13:21:48.442Z,3032
2019-01-23T13:22:48.170Z,3076
2019-01-23T13:23:48.400Z,3092
2019-01-23T13:24:48.381Z,3080
2019-01-23T13:25:48.363Z,3080
2019-01-23T13:26:48.346Z,3080
2019-01-23T13:27:48.319Z,3092
2019-01-23T13:28:48.543Z,3100
2019-01-23T13:29:48.276Z,3104
2019-01-23T13:30:48.249Z,3104
2019-01-23T13:31:53.955Z,3188
2019-01-23T13:32:47.955Z,3216
2019-01-23T13:33:48.188Z,3228
2019-01-23T13:34:48.165Z,3292
2019-01-23T13:35:48.143Z,3380
2019-01-23T13:36:47.873Z,3448
2019-01-23T13:37:47.861Z,3532
2019-01-23T13:38:48.081Z,3652
2019-01-23T13:39:48.056Z,3792
2019-01-23T13:40:48.043Z,3932
2019-01-23T13:41:48.014Z,4048
2019-01-23T13:42:47.992Z,4172
2019-01-23T13:43:47.970Z,4296
2019-01-23T13:44:47.950Z,4384
2019-01-23T13:45:49.020Z,4444
2019-01-23T13:46:47.904Z,4464
2019-01-23T13:47:47.882Z,4476
2019-01-23T13:48:47.619Z,4452
2019-01-23T13:49:47.597Z,4436
2019-01-23T13:50:47.581Z,4348
2019-01-23T13:51:47.802Z,4284
2019-01-23T13:52:47.534Z,4224
2019-01-23T13:53:47.921Z,4168
2019-01-23T13:54:47.737Z,4116
2019-01-23T13:55:47.473Z,4048
2019-01-23T13:56:47.693Z,3960
2019-01-23T13:57:47.682Z,3856
2019-01-23T13:58:48.885Z,3768
2019-01-23T13:59:47.630Z,3692